sensor_id;sensor_type;location;lat;lon;timestamp;temperature;humidity
52323;DHT22;38263;52.920;6.238;2023-07-13T00:01:48;16.20;99.90
52323;DHT22;38263;52.920;6.238;2023-07-13T00:04:19;16.30;99.90
52323;DHT22;38263;52.920;6.238;2023-07-13T00:06:46;16.40;99.90
52323;DHT22;38263;52.920;6.238;2023-07-13T00:09:15;16.30;99.90
52323;DHT22;38263;52.920;6.238;2023-07-13T00:11:42;16.50;99.90
52323;DHT22;38263;52.920;6.238;2023-07-13T00:14:09;16.30;99.90
52323;DHT22;38263;52.920;6.238;2023-07-13T00:16:36;16.40;99.90
52323;DHT22;38263;52.920;6.238;2023-07-13T00:19:02;16.50;99.90
52323;DHT22;38263;52.920;6.238;2023-07-13T00:23:54;16.50;99.90
52323;DHT22;38263;52.920;6.238;2023-07-13T00:31:13;16.40;99.90
52323;DHT22;38263;52.920;6.238;2023-07-13T00:33:40;16.30;99.90
52323;DHT22;38263;52.920;6.238;2023-07-13T00:38:32;16.50;99.90
52323;DHT22;38263;52.920;6.238;2023-07-13T00:43:27;16.50;99.90
52323;DHT22;38263;52.920;6.238;2023-07-13T00:48:33;16.50;99.90
52323;DHT22;38263;52.920;6.238;2023-07-13T00:51:00;16.50;99.90
52323;DHT22;38263;52.920;6.238;2023-07-13T00:53:28;16.70;99.90
52323;DHT22;38263;52.920;6.238;2023-07-13T00:55:55;16.50;99.90
52323;DHT22;38263;52.920;6.238;2023-07-13T01:00:49;16.60;99.90
52323;DHT22;38263;52.920;6.238;2023-07-13T01:03:16;16.50;99.90
52323;DHT22;38263;52.920;6.238;2023-07-13T01:08:09;16.50;99.90
52323;DHT22;38263;52.920;6.238;2023-07-13T01:10:35;16.50;99.90
52323;DHT22;38263;52.920;6.238;2023-07-13T01:13:09;16.40;99.90
52323;DHT22;38263;52.920;6.238;2023-07-13T01:16:04;16.70;99.90
52323;DHT22;38263;52.920;6.238;2023-07-13T01:21:03;16.80;99.90
52323;DHT22;38263;52.920;6.238;2023-07-13T01:23:31;16.60;99.90
52323;DHT22;38263;52.920;6.238;2023-07-13T01:25:58;16.30;99.90
52323;DHT22;38263;52.920;6.238;2023-07-13T01:28:25;16.50;99.90
52323;DHT22;38263;52.920;6.238;2023-07-13T01:35:46;16.50;99.90
52323;DHT22;38263;52.920;6.238;2023-07-13T01:38:17;16.40;99.90
52323;DHT22;38263;52.920;6.238;2023-07-13T01:40:43;16.50;99.90
52323;DHT22;38263;52.920;6.238;2023-07-13T01:55:20;16.20;99.90
52323;DHT22;38263;52.920;6.238;2023-07-13T02:00:13;16.40;99.90
52323;DHT22;38263;52.920;6.238;2023-07-13T02:05:05;16.20;99.90
52323;DHT22;38263;52.920;6.238;2023-07-13T02:36:44;15.80;99.90
52323;DHT22;38263;52.920;6.238;2023-07-13T02:39:11;15.80;99.90
52323;DHT22;38263;52.920;6.238;2023-07-13T02:46:33;15.90;99.90
52323;DHT22;38263;52.920;6.238;2023-07-13T02:48:59;15.80;99.90
52323;DHT22;38263;52.920;6.238;2023-07-13T02:51:25;15.70;99.90
52323;DHT22;38263;52.920;6.238;2023-07-13T02:56:28;15.80;99.90
52323;DHT22;38263;52.920;6.238;2023-07-13T03:03:48;15.70;99.90
52323;DHT22;38263;52.920;6.238;2023-07-13T03:06:15;15.50;99.90
52323;DHT22;38263;52.920;6.238;2023-07-13T03:08:42;15.70;99.90
52323;DHT22;38263;52.920;6.238;2023-07-13T03:11:12;15.60;99.90
52323;DHT22;38263;52.920;6.238;2023-07-13T03:13:40;15.70;99.90
52323;DHT22;38263;52.920;6.238;2023-07-13T03:20:59;15.50;99.90
52323;DHT22;38263;52.920;6.238;2023-07-13T03:26:00;15.60;99.90
52323;DHT22;38263;52.920;6.238;2023-07-13T03:31:09;15.40;99.90
52323;DHT22;38263;52.920;6.238;2023-07-13T03:33:35;15.60;99.90
52323;DHT22;38263;52.920;6.238;2023-07-13T03:36:02;15.60;99.90
52323;DHT22;38263;52.920;6.238;2023-07-13T03:45:47;15.50;99.90
52323;DHT22;38263;52.920;6.238;2023-07-13T03:48:13;15.60;99.90
52323;DHT22;38263;52.920;6.238;2023-07-13T03:50:39;15.70;99.90
52323;DHT22;38263;52.920;6.238;2023-07-13T03:58:45;15.90;99.90
52323;DHT22;38263;52.920;6.238;2023-07-13T04:05:38;15.80;99.90
52323;DHT22;38263;52.920;6.238;2023-07-13T04:08:06;15.90;99.90
52323;DHT22;38263;52.920;6.238;2023-07-13T04:15:23;15.70;99.90
52323;DHT22;38263;52.920;6.238;2023-07-13T04:25:07;15.80;99.90
52323;DHT22;38263;52.920;6.238;2023-07-13T04:37:20;15.90;99.90
52323;DHT22;38263;52.920;6.238;2023-07-13T04:59:14;16.00;99.90
52323;DHT22;38263;52.920;6.238;2023-07-13T05:06:33;16.60;99.90
52323;DHT22;38263;52.920;6.238;2023-07-13T05:11:24;16.80;99.90
52323;DHT22;38263;52.920;6.238;2023-07-13T05:21:09;17.40;99.90
52323;DHT22;38263;52.920;6.238;2023-07-13T05:28:30;17.50;99.90
52323;DHT22;38263;52.920;6.238;2023-07-13T05:33:23;18.40;99.90
52323;DHT22;38263;52.920;6.238;2023-07-13T05:38:15;18.40;99.90
52323;DHT22;38263;52.920;6.238;2023-07-13T05:40:45;18.70;99.90
52323;DHT22;38263;52.920;6.238;2023-07-13T05:43:12;19.40;99.90
52323;DHT22;38263;52.920;6.238;2023-07-13T05:48:04;20.00;99.90
52323;DHT22;38263;52.920;6.238;2023-07-13T05:50:30;20.20;99.90
52323;DHT22;38263;52.920;6.238;2023-07-13T05:52:55;20.50;99.90
52323;DHT22;38263;52.920;6.238;2023-07-13T05:55:22;20.90;99.90
52323;DHT22;38263;52.920;6.238;2023-07-13T05:57:47;21.00;99.90
52323;DHT22;38263;52.920;6.238;2023-07-13T06:00:14;21.20;99.90
52323;DHT22;38263;52.920;6.238;2023-07-13T06:02:39;21.70;99.90
52323;DHT22;38263;52.920;6.238;2023-07-13T06:05:05;22.10;99.90
52323;DHT22;38263;52.920;6.238;2023-07-13T06:07:31;21.90;99.90
52323;DHT22;38263;52.920;6.238;2023-07-13T06:09:57;22.00;99.90
52323;DHT22;38263;52.920;6.238;2023-07-13T06:12:24;22.00;99.90
52323;DHT22;38263;52.920;6.238;2023-07-13T06:14:50;21.90;99.90
52323;DHT22;38263;52.920;6.238;2023-07-13T06:17:16;22.30;99.90
52323;DHT22;38263;52.920;6.238;2023-07-13T06:19:41;22.80;99.90
52323;DHT22;38263;52.920;6.238;2023-07-13T06:22:07;22.90;99.90
52323;DHT22;38263;52.920;6.238;2023-07-13T06:24:33;23.30;99.90
52323;DHT22;38263;52.920;6.238;2023-07-13T06:26:58;23.60;99.90
52323;DHT22;38263;52.920;6.238;2023-07-13T06:29:24;24.00;99.90
52323;DHT22;38263;52.920;6.238;2023-07-13T06:31:50;24.50;99.90
52323;DHT22;38263;52.920;6.238;2023-07-13T06:34:15;24.80;99.90
52323;DHT22;38263;52.920;6.238;2023-07-13T06:36:41;24.90;99.90
52323;DHT22;38263;52.920;6.238;2023-07-13T06:39:07;25.10;99.90
52323;DHT22;38263;52.920;6.238;2023-07-13T06:41:33;25.10;99.90
52323;DHT22;38263;52.920;6.238;2023-07-13T06:43:59;24.50;99.90
52323;DHT22;38263;52.920;6.238;2023-07-13T06:46:24;24.00;99.90
52323;DHT22;38263;52.920;6.238;2023-07-13T06:48:50;23.10;99.90
52323;DHT22;38263;52.920;6.238;2023-07-13T06:51:16;22.60;99.90
52323;DHT22;38263;52.920;6.238;2023-07-13T06:53:41;22.00;99.90
52323;DHT22;38263;52.920;6.238;2023-07-13T06:56:09;21.50;99.90
52323;DHT22;38263;52.920;6.238;2023-07-13T06:58:36;21.20;99.90
52323;DHT22;38263;52.920;6.238;2023-07-13T07:01:01;20.70;99.90
52323;DHT22;38263;52.920;6.238;2023-07-13T07:03:27;20.60;99.90
52323;DHT22;38263;52.920;6.238;2023-07-13T07:05:53;20.60;99.90
52323;DHT22;38263;52.920;6.238;2023-07-13T07:08:18;20.40;99.90
52323;DHT22;38263;52.920;6.238;2023-07-13T07:13:11;20.20;99.90
52323;DHT22;38263;52.920;6.238;2023-07-13T07:15:36;20.00;99.90
52323;DHT22;38263;52.920;6.238;2023-07-13T07:18:02;19.90;99.90
52323;DHT22;38263;52.920;6.238;2023-07-13T07:20:28;19.70;99.90
52323;DHT22;38263;52.920;6.238;2023-07-13T07:22:56;19.60;99.90
52323;DHT22;38263;52.920;6.238;2023-07-13T07:25:21;19.40;99.90
52323;DHT22;38263;52.920;6.238;2023-07-13T07:27:47;19.40;99.90
52323;DHT22;38263;52.920;6.238;2023-07-13T07:30:13;19.20;99.90
52323;DHT22;38263;52.920;6.238;2023-07-13T07:32:38;19.20;99.90
52323;DHT22;38263;52.920;6.238;2023-07-13T07:37:30;19.50;99.90
52323;DHT22;38263;52.920;6.238;2023-07-13T07:39:56;19.50;99.90
52323;DHT22;38263;52.920;6.238;2023-07-13T07:44:47;19.30;99.90
52323;DHT22;38263;52.920;6.238;2023-07-13T07:47:13;19.20;99.90
52323;DHT22;38263;52.920;6.238;2023-07-13T07:52:05;19.30;99.90
52323;DHT22;38263;52.920;6.238;2023-07-13T07:54:31;19.20;99.90
52323;DHT22;38263;52.920;6.238;2023-07-13T07:56:57;19.20;99.90
52323;DHT22;38263;52.920;6.238;2023-07-13T07:59:22;19.30;99.90
52323;DHT22;38263;52.920;6.238;2023-07-13T08:01:48;19.30;99.90
52323;DHT22;38263;52.920;6.238;2023-07-13T08:04:16;19.20;99.90
52323;DHT22;38263;52.920;6.238;2023-07-13T08:06:42;19.10;99.90
52323;DHT22;38263;52.920;6.238;2023-07-13T08:09:07;19.00;99.90
52323;DHT22;38263;52.920;6.238;2023-07-13T08:11:34;19.00;99.90
52323;DHT22;38263;52.920;6.238;2023-07-13T08:16:26;19.00;99.90
52323;DHT22;38263;52.920;6.238;2023-07-13T08:18:52;18.80;99.90
52323;DHT22;38263;52.920;6.238;2023-07-13T08:21:17;18.70;99.90
52323;DHT22;38263;52.920;6.238;2023-07-13T08:26:11;18.60;99.90
52323;DHT22;38263;52.920;6.238;2023-07-13T08:31:04;18.30;99.90
52323;DHT22;38263;52.920;6.238;2023-07-13T08:35:57;18.40;99.90
52323;DHT22;38263;52.920;6.238;2023-07-13T08:38:23;18.20;99.90
52323;DHT22;38263;52.920;6.238;2023-07-13T08:40:56;18.20;99.90
52323;DHT22;38263;52.920;6.238;2023-07-13T08:43:36;18.10;99.90
52323;DHT22;38263;52.920;6.238;2023-07-13T08:46:13;18.00;99.90
52323;DHT22;38263;52.920;6.238;2023-07-13T08:48:48;18.00;99.90
52323;DHT22;38263;52.920;6.238;2023-07-13T08:53:57;18.10;99.90
52323;DHT22;38263;52.920;6.238;2023-07-13T08:56:29;18.20;99.90
52323;DHT22;38263;52.920;6.238;2023-07-13T08:59:18;18.80;99.90
52323;DHT22;38263;52.920;6.238;2023-07-13T09:02:14;18.10;99.90
52323;DHT22;38263;52.920;6.238;2023-07-13T09:04:48;18.10;99.90
52323;DHT22;38263;52.920;6.238;2023-07-13T09:15:31;18.80;99.90
52323;DHT22;38263;52.920;6.238;2023-07-13T09:18:07;18.70;99.90
52323;DHT22;38263;52.920;6.238;2023-07-13T09:20:37;18.80;99.90
52323;DHT22;38263;52.920;6.238;2023-07-13T09:23:10;19.00;99.90
52323;DHT22;38263;52.920;6.238;2023-07-13T09:25:38;19.00;99.90
52323;DHT22;38263;52.920;6.238;2023-07-13T09:30:42;19.00;99.90
52323;DHT22;38263;52.920;6.238;2023-07-13T09:33:10;19.00;99.90
52323;DHT22;38263;52.920;6.238;2023-07-13T09:35:35;19.10;99.90
52323;DHT22;38263;52.920;6.238;2023-07-13T09:38:22;19.10;99.90
52323;DHT22;38263;52.920;6.238;2023-07-13T09:44:14;19.30;99.90
52323;DHT22;38263;52.920;6.238;2023-07-13T09:46:52;19.10;99.90
52323;DHT22;38263;52.920;6.238;2023-07-13T09:49:18;19.40;99.90
52323;DHT22;38263;52.920;6.238;2023-07-13T09:51:44;19.50;99.90
52323;DHT22;38263;52.920;6.238;2023-07-13T09:54:21;19.60;99.90
52323;DHT22;38263;52.920;6.238;2023-07-13T09:57:00;19.70;99.90
52323;DHT22;38263;52.920;6.238;2023-07-13T09:59:33;19.80;99.90
52323;DHT22;38263;52.920;6.238;2023-07-13T10:01:59;19.90;99.90
52323;DHT22;38263;52.920;6.238;2023-07-13T10:04:31;20.20;99.90
52323;DHT22;38263;52.920;6.238;2023-07-13T10:07:09;20.30;99.90
52323;DHT22;38263;52.920;6.238;2023-07-13T10:09:38;20.20;99.90
52323;DHT22;38263;52.920;6.238;2023-07-13T10:12:13;20.20;99.90
52323;DHT22;38263;52.920;6.238;2023-07-13T10:14:40;20.10;99.90
52323;DHT22;38263;52.920;6.238;2023-07-13T10:17:12;20.00;99.90
52323;DHT22;38263;52.920;6.238;2023-07-13T10:19:39;20.00;99.90
52323;DHT22;38263;52.920;6.238;2023-07-13T10:24:44;19.90;99.90
52323;DHT22;38263;52.920;6.238;2023-07-13T10:27:11;20.20;99.90
52323;DHT22;38263;52.920;6.238;2023-07-13T10:29:46;20.20;99.90
52323;DHT22;38263;52.920;6.238;2023-07-13T10:32:13;20.20;99.90
52323;DHT22;38263;52.920;6.238;2023-07-13T10:34:41;20.40;99.90
52323;DHT22;38263;52.920;6.238;2023-07-13T10:37:19;20.30;99.90
52323;DHT22;38263;52.920;6.238;2023-07-13T10:39:47;20.40;99.90
52323;DHT22;38263;52.920;6.238;2023-07-13T10:42:29;20.50;99.90
52323;DHT22;38263;52.920;6.238;2023-07-13T10:44:56;20.40;99.90
52323;DHT22;38263;52.920;6.238;2023-07-13T10:47:22;20.50;99.90
52323;DHT22;38263;52.920;6.238;2023-07-13T10:49:52;20.30;99.90
52323;DHT22;38263;52.920;6.238;2023-07-13T10:52:47;20.40;99.90
52323;DHT22;38263;52.920;6.238;2023-07-13T10:55:31;20.20;99.90
52323;DHT22;38263;52.920;6.238;2023-07-13T10:58:13;20.20;99.90
52323;DHT22;38263;52.920;6.238;2023-07-13T11:03:27;20.90;99.90
52323;DHT22;38263;52.920;6.238;2023-07-13T11:06:09;20.90;99.90
52323;DHT22;38263;52.920;6.238;2023-07-13T11:08:53;21.00;99.90
52323;DHT22;38263;52.920;6.238;2023-07-13T11:11:38;21.40;99.90
52323;DHT22;38263;52.920;6.238;2023-07-13T11:14:04;21.10;99.90
52323;DHT22;38263;52.920;6.238;2023-07-13T11:16:46;21.30;99.90
52323;DHT22;38263;52.920;6.238;2023-07-13T11:27:40;21.30;99.90
52323;DHT22;38263;52.920;6.238;2023-07-13T11:30:22;21.30;99.90
52323;DHT22;38263;52.920;6.238;2023-07-13T11:33:02;21.30;99.90
52323;DHT22;38263;52.920;6.238;2023-07-13T11:35:33;21.60;99.90
52323;DHT22;38263;52.920;6.238;2023-07-13T11:38:02;21.30;99.90
52323;DHT22;38263;52.920;6.238;2023-07-13T11:40:30;21.20;99.90
52323;DHT22;38263;52.920;6.238;2023-07-13T11:43:00;21.10;99.90
52323;DHT22;38263;52.920;6.238;2023-07-13T11:45:28;21.10;99.90
52323;DHT22;38263;52.920;6.238;2023-07-13T11:47:54;21.30;99.90
52323;DHT22;38263;52.920;6.238;2023-07-13T11:50:24;21.40;99.90
52323;DHT22;38263;52.920;6.238;2023-07-13T11:52:51;21.80;99.90
52323;DHT22;38263;52.920;6.238;2023-07-13T11:55:21;21.90;99.90
52323;DHT22;38263;52.920;6.238;2023-07-13T11:58:01;22.10;99.90
52323;DHT22;38263;52.920;6.238;2023-07-13T12:00:32;21.90;99.90
52323;DHT22;38263;52.920;6.238;2023-07-13T12:03:01;21.90;99.90
52323;DHT22;38263;52.920;6.238;2023-07-13T12:05:30;21.70;99.90
52323;DHT22;38263;52.920;6.238;2023-07-13T12:07:58;21.90;99.90
52323;DHT22;38263;52.920;6.238;2023-07-13T12:10:27;22.00;99.90
52323;DHT22;38263;52.920;6.238;2023-07-13T12:13:03;22.30;99.90
52323;DHT22;38263;52.920;6.238;2023-07-13T12:15:40;22.20;99.90
52323;DHT22;38263;52.920;6.238;2023-07-13T12:18:19;22.00;99.90
52323;DHT22;38263;52.920;6.238;2023-07-13T12:20:46;22.10;99.90
52323;DHT22;38263;52.920;6.238;2023-07-13T12:25:53;21.70;99.90
52323;DHT22;38263;52.920;6.238;2023-07-13T12:28:21;21.80;99.90
52323;DHT22;38263;52.920;6.238;2023-07-13T12:30:48;21.80;99.90
52323;DHT22;38263;52.920;6.238;2023-07-13T12:33:15;22.10;99.90
52323;DHT22;38263;52.920;6.238;2023-07-13T12:35:47;21.60;99.90
52323;DHT22;38263;52.920;6.238;2023-07-13T12:38:13;21.80;99.90
52323;DHT22;38263;52.920;6.238;2023-07-13T12:40:40;22.10;99.90
52323;DHT22;38263;52.920;6.238;2023-07-13T12:43:14;22.00;99.90
52323;DHT22;38263;52.920;6.238;2023-07-13T12:46:36;22.20;99.90
52323;DHT22;38263;52.920;6.238;2023-07-13T12:48:43;22.10;99.90
52323;DHT22;38263;52.920;6.238;2023-07-13T12:51:14;22.10;99.90
52323;DHT22;38263;52.920;6.238;2023-07-13T12:53:48;22.30;99.90
52323;DHT22;38263;52.920;6.238;2023-07-13T12:56:19;22.30;99.90
52323;DHT22;38263;52.920;6.238;2023-07-13T12:58:47;22.70;99.90
52323;DHT22;38263;52.920;6.238;2023-07-13T13:01:17;22.30;99.90
52323;DHT22;38263;52.920;6.238;2023-07-13T13:03:48;22.50;99.90
52323;DHT22;38263;52.920;6.238;2023-07-13T13:08:51;22.30;99.90
52323;DHT22;38263;52.920;6.238;2023-07-13T13:11:18;22.60;99.90
52323;DHT22;38263;52.920;6.238;2023-07-13T13:13:45;22.50;99.90
52323;DHT22;38263;52.920;6.238;2023-07-13T13:16:26;23.00;99.90
52323;DHT22;38263;52.920;6.238;2023-07-13T13:18:57;22.60;99.90
52323;DHT22;38263;52.920;6.238;2023-07-13T13:21:25;22.50;99.90
52323;DHT22;38263;52.920;6.238;2023-07-13T13:23:52;22.50;99.90
52323;DHT22;38263;52.920;6.238;2023-07-13T13:26:19;22.40;99.90
52323;DHT22;38263;52.920;6.238;2023-07-13T13:28:46;22.80;99.90
52323;DHT22;38263;52.920;6.238;2023-07-13T13:31:13;22.60;99.90
52323;DHT22;38263;52.920;6.238;2023-07-13T13:33:41;22.70;99.90
52323;DHT22;38263;52.920;6.238;2023-07-13T13:36:22;22.90;99.90
52323;DHT22;38263;52.920;6.238;2023-07-13T13:38:49;22.60;99.90
52323;DHT22;38263;52.920;6.238;2023-07-13T13:41:16;22.50;99.90
52323;DHT22;38263;52.920;6.238;2023-07-13T13:43:42;22.70;99.90
52323;DHT22;38263;52.920;6.238;2023-07-13T13:48:39;22.50;99.90
52323;DHT22;38263;52.920;6.238;2023-07-13T13:51:25;22.50;99.90
52323;DHT22;38263;52.920;6.238;2023-07-13T13:53:51;22.70;99.90
52323;DHT22;38263;52.920;6.238;2023-07-13T13:56:19;22.90;99.90
52323;DHT22;38263;52.920;6.238;2023-07-13T13:58:45;23.80;99.90
52323;DHT22;38263;52.920;6.238;2023-07-13T14:01:14;22.80;99.90
52323;DHT22;38263;52.920;6.238;2023-07-13T14:03:41;22.50;99.90
52323;DHT22;38263;52.920;6.238;2023-07-13T14:06:11;22.60;99.90
52323;DHT22;38263;52.920;6.238;2023-07-13T14:08:37;22.50;99.90
52323;DHT22;38263;52.920;6.238;2023-07-13T14:11:03;22.60;99.90
52323;DHT22;38263;52.920;6.238;2023-07-13T14:13:35;22.50;99.90
52323;DHT22;38263;52.920;6.238;2023-07-13T14:16:02;22.70;99.90
52323;DHT22;38263;52.920;6.238;2023-07-13T14:18:28;23.00;99.90
52323;DHT22;38263;52.920;6.238;2023-07-13T14:20:53;23.00;99.90
52323;DHT22;38263;52.920;6.238;2023-07-13T14:23:19;22.90;99.90
52323;DHT22;38263;52.920;6.238;2023-07-13T14:25:48;22.70;99.90
52323;DHT22;38263;52.920;6.238;2023-07-13T14:28:23;22.60;99.90
52323;DHT22;38263;52.920;6.238;2023-07-13T14:30:50;22.10;99.90
52323;DHT22;38263;52.920;6.238;2023-07-13T14:33:16;22.20;99.90
52323;DHT22;38263;52.920;6.238;2023-07-13T14:35:42;22.10;99.90
52323;DHT22;38263;52.920;6.238;2023-07-13T14:38:15;21.90;99.90
52323;DHT22;38263;52.920;6.238;2023-07-13T14:40:42;21.80;99.90
52323;DHT22;38263;52.920;6.238;2023-07-13T14:43:11;21.70;99.90
52323;DHT22;38263;52.920;6.238;2023-07-13T14:45:41;22.00;99.90
52323;DHT22;38263;52.920;6.238;2023-07-13T14:48:17;22.00;99.90
52323;DHT22;38263;52.920;6.238;2023-07-13T14:50:44;22.20;99.90
52323;DHT22;38263;52.920;6.238;2023-07-13T14:53:12;22.40;99.90
52323;DHT22;38263;52.920;6.238;2023-07-13T14:55:38;22.10;99.90
52323;DHT22;38263;52.920;6.238;2023-07-13T14:58:04;24.90;99.90
52323;DHT22;38263;52.920;6.238;2023-07-13T15:00:30;22.30;99.90
52323;DHT22;38263;52.920;6.238;2023-07-13T15:02:57;22.30;99.90
52323;DHT22;38263;52.920;6.238;2023-07-13T15:05:30;22.50;99.90
52323;DHT22;38263;52.920;6.238;2023-07-13T15:07:59;22.00;99.90
52323;DHT22;38263;52.920;6.238;2023-07-13T15:10:30;22.30;99.90
52323;DHT22;38263;52.920;6.238;2023-07-13T15:13:01;22.20;99.90
52323;DHT22;38263;52.920;6.238;2023-07-13T15:15:31;22.30;99.90
52323;DHT22;38263;52.920;6.238;2023-07-13T15:17:59;22.10;99.90
52323;DHT22;38263;52.920;6.238;2023-07-13T15:20:28;22.50;99.90
52323;DHT22;38263;52.920;6.238;2023-07-13T15:22:55;22.20;99.90
52323;DHT22;38263;52.920;6.238;2023-07-13T15:25:24;22.30;99.90
52323;DHT22;38263;52.920;6.238;2023-07-13T15:27:51;22.40;99.90
52323;DHT22;38263;52.920;6.238;2023-07-13T15:30:17;22.30;99.90
52323;DHT22;38263;52.920;6.238;2023-07-13T15:32:44;22.40;99.90
52323;DHT22;38263;52.920;6.238;2023-07-13T15:35:18;22.20;99.90
52323;DHT22;38263;52.920;6.238;2023-07-13T15:37:44;22.10;99.90
52323;DHT22;38263;52.920;6.238;2023-07-13T15:40:11;22.00;99.90
52323;DHT22;38263;52.920;6.238;2023-07-13T15:42:38;21.90;99.90
52323;DHT22;38263;52.920;6.238;2023-07-13T15:47:40;22.20;99.90
52323;DHT22;38263;52.920;6.238;2023-07-13T15:50:16;22.00;99.90
52323;DHT22;38263;52.920;6.238;2023-07-13T15:52:44;22.00;99.90
52323;DHT22;38263;52.920;6.238;2023-07-13T15:55:12;22.20;99.90
52323;DHT22;38263;52.920;6.238;2023-07-13T15:57:39;22.10;99.90
52323;DHT22;38263;52.920;6.238;2023-07-13T16:00:18;22.10;99.90
52323;DHT22;38263;52.920;6.238;2023-07-13T16:02:46;22.10;99.90
52323;DHT22;38263;52.920;6.238;2023-07-13T16:05:12;21.70;99.90
52323;DHT22;38263;52.920;6.238;2023-07-13T16:07:38;21.50;99.90
52323;DHT22;38263;52.920;6.238;2023-07-13T16:10:04;21.70;99.90
52323;DHT22;38263;52.920;6.238;2023-07-13T16:12:30;21.80;99.90
52323;DHT22;38263;52.920;6.238;2023-07-13T16:14:55;21.60;99.90
52323;DHT22;38263;52.920;6.238;2023-07-13T16:17:21;21.70;99.90
52323;DHT22;38263;52.920;6.238;2023-07-13T16:19:46;21.50;99.90
52323;DHT22;38263;52.920;6.238;2023-07-13T16:22:17;21.50;99.90
52323;DHT22;38263;52.920;6.238;2023-07-13T16:24:44;21.60;99.90
52323;DHT22;38263;52.920;6.238;2023-07-13T16:27:11;21.40;99.90
52323;DHT22;38263;52.920;6.238;2023-07-13T16:29:38;21.50;99.90
52323;DHT22;38263;52.920;6.238;2023-07-13T16:32:06;21.50;99.90
52323;DHT22;38263;52.920;6.238;2023-07-13T16:34:34;21.40;99.90
52323;DHT22;38263;52.920;6.238;2023-07-13T16:37:01;21.70;99.90
52323;DHT22;38263;52.920;6.238;2023-07-13T16:39:28;21.80;99.90
52323;DHT22;38263;52.920;6.238;2023-07-13T16:41:57;21.90;99.90
52323;DHT22;38263;52.920;6.238;2023-07-13T16:44:23;21.90;99.90
52323;DHT22;38263;52.920;6.238;2023-07-13T16:46:51;22.00;99.90
52323;DHT22;38263;52.920;6.238;2023-07-13T16:49:55;22.10;99.90
52323;DHT22;38263;52.920;6.238;2023-07-13T16:52:23;22.10;99.90
52323;DHT22;38263;52.920;6.238;2023-07-13T16:54:49;22.10;99.90
52323;DHT22;38263;52.920;6.238;2023-07-13T16:57:18;22.10;99.90
52323;DHT22;38263;52.920;6.238;2023-07-13T16:59:45;22.00;99.90
52323;DHT22;38263;52.920;6.238;2023-07-13T17:04:49;22.20;99.90
52323;DHT22;38263;52.920;6.238;2023-07-13T17:07:15;22.10;99.90
52323;DHT22;38263;52.920;6.238;2023-07-13T17:09:44;21.90;99.90
52323;DHT22;38263;52.920;6.238;2023-07-13T17:12:11;22.10;99.90
52323;DHT22;38263;52.920;6.238;2023-07-13T17:14:37;21.60;99.90
52323;DHT22;38263;52.920;6.238;2023-07-13T17:17:19;21.70;99.90
52323;DHT22;38263;52.920;6.238;2023-07-13T17:19:50;21.60;99.90
52323;DHT22;38263;52.920;6.238;2023-07-13T17:22:17;21.50;99.90
52323;DHT22;38263;52.920;6.238;2023-07-13T17:24:44;21.60;99.90
52323;DHT22;38263;52.920;6.238;2023-07-13T17:27:11;21.40;99.90
52323;DHT22;38263;52.920;6.238;2023-07-13T17:29:37;21.30;99.90
52323;DHT22;38263;52.920;6.238;2023-07-13T17:32:08;21.20;99.90
52323;DHT22;38263;52.920;6.238;2023-07-13T17:34:36;21.40;99.90
52323;DHT22;38263;52.920;6.238;2023-07-13T17:37:12;21.50;99.90
52323;DHT22;38263;52.920;6.238;2023-07-13T17:39:39;21.30;99.90
52323;DHT22;38263;52.920;6.238;2023-07-13T17:42:05;21.50;99.90
52323;DHT22;38263;52.920;6.238;2023-07-13T17:44:31;21.30;99.90
52323;DHT22;38263;52.920;6.238;2023-07-13T17:46:56;21.60;99.90
52323;DHT22;38263;52.920;6.238;2023-07-13T17:49:24;21.20;99.90
52323;DHT22;38263;52.920;6.238;2023-07-13T17:51:58;21.50;99.90
52323;DHT22;38263;52.920;6.238;2023-07-13T17:54:26;21.30;99.90
52323;DHT22;38263;52.920;6.238;2023-07-13T17:56:53;21.30;99.90
52323;DHT22;38263;52.920;6.238;2023-07-13T17:59:19;19.40;99.90
52323;DHT22;38263;52.920;6.238;2023-07-13T18:01:46;21.10;99.90
52323;DHT22;38263;52.920;6.238;2023-07-13T18:04:13;21.00;99.90
52323;DHT22;38263;52.920;6.238;2023-07-13T18:06:42;21.30;99.90
52323;DHT22;38263;52.920;6.238;2023-07-13T18:09:18;20.80;99.90
52323;DHT22;38263;52.920;6.238;2023-07-13T18:11:44;20.80;99.90
52323;DHT22;38263;52.920;6.238;2023-07-13T18:14:10;21.00;99.90
52323;DHT22;38263;52.920;6.238;2023-07-13T18:16:37;20.80;99.90
52323;DHT22;38263;52.920;6.238;2023-07-13T18:19:05;20.60;99.90
52323;DHT22;38263;52.920;6.238;2023-07-13T18:21:33;20.60;99.90
52323;DHT22;38263;52.920;6.238;2023-07-13T18:24:00;20.60;99.90
52323;DHT22;38263;52.920;6.238;2023-07-13T18:26:28;20.50;99.90
52323;DHT22;38263;52.920;6.238;2023-07-13T18:28:53;20.40;99.90
52323;DHT22;38263;52.920;6.238;2023-07-13T18:31:21;20.30;99.90
52323;DHT22;38263;52.920;6.238;2023-07-13T18:33:52;20.00;99.90
52323;DHT22;38263;52.920;6.238;2023-07-13T18:36:21;20.10;99.90
52323;DHT22;38263;52.920;6.238;2023-07-13T18:38:47;20.00;99.90
52323;DHT22;38263;52.920;6.238;2023-07-13T18:41:19;20.10;99.90
52323;DHT22;38263;52.920;6.238;2023-07-13T18:43:46;20.00;99.90
52323;DHT22;38263;52.920;6.238;2023-07-13T18:46:24;20.00;99.90
52323;DHT22;38263;52.920;6.238;2023-07-13T18:48:51;19.90;99.90
52323;DHT22;38263;52.920;6.238;2023-07-13T18:51:17;19.70;99.90
52323;DHT22;38263;52.920;6.238;2023-07-13T18:53:43;19.80;99.90
52323;DHT22;38263;52.920;6.238;2023-07-13T18:56:09;19.40;99.90
52323;DHT22;38263;52.920;6.238;2023-07-13T18:58:37;19.50;99.90
52323;DHT22;38263;52.920;6.238;2023-07-13T19:01:04;19.40;99.90
52323;DHT22;38263;52.920;6.238;2023-07-13T19:03:33;19.40;99.90
52323;DHT22;38263;52.920;6.238;2023-07-13T19:06:03;19.90;99.90
52323;DHT22;38263;52.920;6.238;2023-07-13T19:08:32;19.30;99.90
52323;DHT22;38263;52.920;6.238;2023-07-13T19:10:58;19.10;99.90
52323;DHT22;38263;52.920;6.238;2023-07-13T19:13:26;19.10;99.90
52323;DHT22;38263;52.920;6.238;2023-07-13T19:15:53;18.90;99.90
52323;DHT22;38263;52.920;6.238;2023-07-13T19:18:21;19.10;99.90
52323;DHT22;38263;52.920;6.238;2023-07-13T19:20:50;18.80;99.90
52323;DHT22;38263;52.920;6.238;2023-07-13T19:23:31;18.80;99.90
52323;DHT22;38263;52.920;6.238;2023-07-13T19:26:27;18.80;99.90
52323;DHT22;38263;52.920;6.238;2023-07-13T19:28:55;18.90;99.90
52323;DHT22;38263;52.920;6.238;2023-07-13T19:31:23;18.40;99.90
52323;DHT22;38263;52.920;6.238;2023-07-13T19:33:50;18.70;99.90
52323;DHT22;38263;52.920;6.238;2023-07-13T19:36:19;18.40;99.90
52323;DHT22;38263;52.920;6.238;2023-07-13T19:38:46;18.30;99.90
52323;DHT22;38263;52.920;6.238;2023-07-13T19:41:14;18.30;99.90
52323;DHT22;38263;52.920;6.238;2023-07-13T19:43:41;18.20;99.90
52323;DHT22;38263;52.920;6.238;2023-07-13T19:46:28;18.20;99.90